Mindoro — SVAS8 — position and weather

sailwx.info

Track history (hours):
 
Tides and Currents Weather Stations Pressure Air Temp Water Temp Dewpoint Dewpoint Depression Visibility Wind Speed Wind Dir Waves Ship Positions

Mindoro

Last reported at 2016-May-30 19:26 UTC. Time now 2016-May-30 22:16 UTC.
Position N 55°38' E 015°44'.

Length 245 m; draft 8.7 m.

Type: Ship (hazmat cat B). MMSI: 240924000.

Date/timePositionNaut miles runAvg speedWind from/ knotsBaromVisibWave heightAir tempDewpointWater temp
2016-May-30 19:26N 55°38' E 015°44'1011.6
2016-May-30 18:33N 55°35' E 015°27'1211.7
2016-May-30 17:33N 55°31' E 015°07'1111.4
2016-May-30 16:33N 55°26' E 014°49'1111.4
2016-May-30 15:33N 55°19' E 014°33'1212.1
2016-May-30 14:33N 55°10' E 014°19'1111.3
2016-May-30 13:33N 55°10' E 013°60'1211.8
2016-May-30 12:33N 55°11' E 013°39'1111.4
2016-May-30 11:33N 55°11' E 013°19'1211.5
2016-May-30 10:32N 55°14' E 012°59'1111.1
2016-May-30 09:33N 55°17' E 012°41'1111.0
2016-May-30 08:33N 55°28' E 012°41'9 8.6
2016-May-30 07:33N 55°37' E 012°42'1312.6
2016-May-30 06:33N 55°50' E 012°42'1312.8
2016-May-30 05:33N 56°02' E 012°39'9 9.3
2016-May-30 04:33N 56°09' E 012°27'7 7.2
2016-May-30 03:33N 56°13' E 012°16'60 9.9
2016-May-29 21:33N 57°08' E 011°37'1010.1
2016-May-29 20:33N 57°18' E 011°30'10 9.9
2016-May-29 19:33N 57°27' E 011°24'10 9.8
2016-May-29 18:33N 57°34' E 011°11'10 9.5
2016-May-29 17:33N 57°40' E 010°58'1010.0
2016-May-29 16:33N 57°47' E 010°44'1010.0
2016-May-29 15:33N 57°48' E 010°25'9911.0
2016-May-29 06:33N 56°58' E 007°46'1211.5
2016-May-29 05:31N 56°48' E 007°36'1311.7
2016-May-29 04:23N 56°36' E 007°24'1111.8
2016-May-29 03:24N 56°26' E 007°15'14611.3
2016-May-28 14:30N 54°22' E 004°58'1010.8
2016-May-28 13:33N 54°15' E 004°46'1111.0
2016-May-28 12:33N 54°04' E 004°41'1110.8
2016-May-28 11:33N 53°54' E 004°34'1111.0
2016-May-28 10:33N 53°46' E 004°21'5811.1
2016-May-28 05:19N 52°59' E 003°23'1312.0
2016-May-28 04:16N 52°48' E 003°14'811.6
2016-May-28 03:33N 52°40' E 003°08'1110.8
2016-May-28 02:29N 52°29' E 003°06'1011.0
2016-May-28 01:33N 52°19' E 003°08'1111.2
2016-May-28 00:33N 52°12' E 003°22'1212.4
2016-May-27 23:33N 52°06' E 003°40'1211.8
2016-May-27 22:33N 52°02' E 003°58'1110.6
2016-May-27 21:34N 51°56' E 004°12'0 0.3
2016-May-27 20:33N 51°55' E 004°12'0 0.0
2016-May-27 19:27N 51°55' E 004°12'0 0.0
2016-May-27 18:33N 51°55' E 004°12'0 0.0
2016-May-27 17:33N 51°55' E 004°12'0 0.0
2016-May-27 16:33N 51°55' E 004°12'0 0.0
2016-May-27 15:33N 51°55' E 004°12'0 0.0
2016-May-27 14:30N 51°55' E 004°12'0 0.0
2016-May-27 13:33N 51°55' E 004°12'0 0.0
2016-May-27 12:33N 51°55' E 004°12'0 0.0
2016-May-27 11:33N 51°55' E 004°12'0 0.0
2016-May-27 10:30N 51°55' E 004°12'0 0.0
2016-May-27 09:27N 51°55' E 004°12'0 0.0
2016-May-27 08:30N 51°55' E 004°12'0 0.0
2016-May-27 07:33N 51°55' E 004°12'0 0.0
2016-May-27 06:30N 51°55' E 004°12'0 0.0
2016-May-27 05:33N 51°55' E 004°12'0 0.0
2016-May-27 04:30N 51°55' E 004°12'0 0.0
2016-May-27 03:33N 51°55' E 004°12'0 0.0
2016-May-27 02:33N 51°55' E 004°12'0 0.0
2016-May-27 01:30N 51°55' E 004°12'0 0.0
2016-May-27 00:33N 51°55' E 004°12'0 0.0
2016-May-26 23:33N 51°55' E 004°12'0 0.0
2016-May-26 22:30N 51°55' E 004°12'0 0.0
2016-May-26 21:27N 51°55' E 004°12'0 0.0
2016-May-26 20:33N 51°55' E 004°12'0 0.0
2016-May-26 19:33N 51°55' E 004°12'0 0.0
2016-May-26 18:32N 51°55' E 004°12'2 2.4
2016-May-26 17:33N 51°57' E 004°09'1010.0
2016-May-26 16:33N 52°01' E 003°55'10 9.8
2016-May-26 15:33N 52°01' E 003°39'9 8.8
2016-May-26 14:33N 51°59' E 003°25'30 8.9
2016-May-26 11:15N 52°05' E 002°38'1514.1
2016-May-26 10:13N 52°19' E 002°44'42412.9
2016-May-25 01:30N 57°51' E 010°24'1313.1
2016-May-25 00:33N 57°48' E 010°47'1010.2
2016-May-24 23:33N 57°41' E 011°00'1212.4
2016-May-24 22:33N 57°32' E 011°17'1211.9
2016-May-24 21:33N 57°22' E 011°30'1212.2
2016-May-24 20:33N 57°11' E 011°38'1212.1
2016-May-24 19:33N 56°59' E 011°45'1212.2
2016-May-24 18:33N 56°48' E 011°52'1211.7
2016-May-24 17:33N 56°37' E 011°45'8510.5
2016-May-24 09:28N 55°15' E 011°05'8 8.1
2016-May-24 08:32N 55°08' E 010°60'1010.4
2016-May-24 07:33N 54°58' E 010°58'1111.2
2016-May-24 06:33N 54°48' E 010°50'10 9.8
2016-May-24 05:33N 54°38' E 010°53'1211.9
2016-May-24 04:33N 54°35' E 011°13'1212.3
2016-May-24 03:34N 54°30' E 011°32'1212.0
2016-May-24 02:33N 54°27' E 011°52'10 9.5
2016-May-24 01:33N 54°27' E 012°09'8 8.1
2016-May-24 00:33N 54°34' E 012°15'9 8.6
2016-May-23 23:32N 54°40' E 012°26'10 8.7
2016-May-23 22:25N 54°44' E 012°41'28 9.6
2016-May-23 19:33N 54°56' E 013°24'1313.1
2016-May-23 18:33N 55°01' E 013°45'1313.2
2016-May-23 17:33N 55°06' E 014°07'1313.1
2016-May-23 16:33N 55°12' E 014°27'1212.5
2016-May-23 15:33N 55°20' E 014°44'9 8.6
2016-May-23 14:33N 55°23' E 014°58'1212.4
2016-May-23 13:34N 55°33' E 015°11'1312.8
2016-May-23 12:33N 55°40' E 015°30'4813.9
2016-May-23 09:03N 55°52' E 016°53'713.6
2016-May-23 08:33N 55°53' E 017°05'1413.5
2016-May-23 07:33N 55°57' E 017°28'1413.5
2016-May-23 06:33N 56°02' E 017°51'1413.6
2016-May-23 05:33N 56°10' E 018°11'22213.5
2016-May-22 13:07N 59°17' E 021°56'813.5
2016-May-22 12:33N 59°21' E 022°07'1413.6
2016-May-22 11:33N 59°30' E 022°29'1413.4
2016-May-22 10:32N 59°34' E 022°54'1413.8
2016-May-22 09:33N 59°38' E 023°20'1413.5
2016-May-22 08:32N 59°42' E 023°46'1313.7
2016-May-22 07:33N 59°46' E 024°12'6913.6
2016-May-22 02:28N 60°00' E 026°26'1213.2
2016-May-22 01:33N 60°00' E 026°50'1412.5
2016-May-22 00:24N 60°04' E 027°18'1113.3
2016-May-21 23:33N 60°10' E 027°38'1212.4
2016-May-21 22:33N 60°10' E 028°03'1312.9
2016-May-21 21:33N 60°08' E 028°28'9 9.2
2016-May-21 20:31N 60°13' E 028°45'7 7.5
2016-May-21 19:33N 60°20' E 028°43'  
Track history (hours):
 
Tides and Currents Weather Stations Pressure Air Temp Water Temp Dewpoint Dewpoint Depression Visibility Wind Speed Wind Dir Waves Ship Positions

Mindoro

Last reported at 2016-May-30 19:26 UTC. Time now 2016-May-30 22:16 UTC.
Position N 55°38' E 015°44'.

Length 245 m; draft 8.7 m.

Type: Ship (hazmat cat B). MMSI: 240924000.

Date/timePositionNaut miles runAvg speedWind from/ knotsBaromVisibWave heightAir tempDewpointWater temp
2016-May-30 19:26N 55°38' E 015°44'1011.6
2016-May-30 18:33N 55°35' E 015°27'1211.7
2016-May-30 17:33N 55°31' E 015°07'1111.4
2016-May-30 16:33N 55°26' E 014°49'1111.4
2016-May-30 15:33N 55°19' E 014°33'1212.1
2016-May-30 14:33N 55°10' E 014°19'1111.3
2016-May-30 13:33N 55°10' E 013°60'1211.8
2016-May-30 12:33N 55°11' E 013°39'1111.4
2016-May-30 11:33N 55°11' E 013°19'1211.5
2016-May-30 10:32N 55°14' E 012°59'1111.1
2016-May-30 09:33N 55°17' E 012°41'1111.0
2016-May-30 08:33N 55°28' E 012°41'9 8.6
2016-May-30 07:33N 55°37' E 012°42'1312.6
2016-May-30 06:33N 55°50' E 012°42'1312.8
2016-May-30 05:33N 56°02' E 012°39'9 9.3
2016-May-30 04:33N 56°09' E 012°27'7 7.2
2016-May-30 03:33N 56°13' E 012°16'60 9.9
2016-May-29 21:33N 57°08' E 011°37'1010.1
2016-May-29 20:33N 57°18' E 011°30'10 9.9
2016-May-29 19:33N 57°27' E 011°24'10 9.8
2016-May-29 18:33N 57°34' E 011°11'10 9.5
2016-May-29 17:33N 57°40' E 010°58'1010.0
2016-May-29 16:33N 57°47' E 010°44'1010.0
2016-May-29 15:33N 57°48' E 010°25'9911.0
2016-May-29 06:33N 56°58' E 007°46'1211.5
2016-May-29 05:31N 56°48' E 007°36'1311.7
2016-May-29 04:23N 56°36' E 007°24'1111.8
2016-May-29 03:24N 56°26' E 007°15'14611.3
2016-May-28 14:30N 54°22' E 004°58'1010.8
2016-May-28 13:33N 54°15' E 004°46'1111.0
2016-May-28 12:33N 54°04' E 004°41'1110.8
2016-May-28 11:33N 53°54' E 004°34'1111.0
2016-May-28 10:33N 53°46' E 004°21'5811.1
2016-May-28 05:19N 52°59' E 003°23'1312.0
2016-May-28 04:16N 52°48' E 003°14'811.6
2016-May-28 03:33N 52°40' E 003°08'1110.8
2016-May-28 02:29N 52°29' E 003°06'1011.0
2016-May-28 01:33N 52°19' E 003°08'1111.2
2016-May-28 00:33N 52°12' E 003°22'1212.4
2016-May-27 23:33N 52°06' E 003°40'1211.8
2016-May-27 22:33N 52°02' E 003°58'1110.6
2016-May-27 21:34N 51°56' E 004°12'0 0.3
2016-May-27 20:33N 51°55' E 004°12'0 0.0
2016-May-27 19:27N 51°55' E 004°12'0 0.0
2016-May-27 18:33N 51°55' E 004°12'0 0.0
2016-May-27 17:33N 51°55' E 004°12'0 0.0
2016-May-27 16:33N 51°55' E 004°12'0 0.0
2016-May-27 15:33N 51°55' E 004°12'0 0.0
2016-May-27 14:30N 51°55' E 004°12'0 0.0
2016-May-27 13:33N 51°55' E 004°12'0 0.0
2016-May-27 12:33N 51°55' E 004°12'0 0.0
2016-May-27 11:33N 51°55' E 004°12'0 0.0
2016-May-27 10:30N 51°55' E 004°12'0 0.0
2016-May-27 09:27N 51°55' E 004°12'0 0.0
2016-May-27 08:30N 51°55' E 004°12'0 0.0
2016-May-27 07:33N 51°55' E 004°12'0 0.0
2016-May-27 06:30N 51°55' E 004°12'0 0.0
2016-May-27 05:33N 51°55' E 004°12'0 0.0
2016-May-27 04:30N 51°55' E 004°12'0 0.0
2016-May-27 03:33N 51°55' E 004°12'0 0.0
2016-May-27 02:33N 51°55' E 004°12'0 0.0
2016-May-27 01:30N 51°55' E 004°12'0 0.0
2016-May-27 00:33N 51°55' E 004°12'0 0.0
2016-May-26 23:33N 51°55' E 004°12'0 0.0
2016-May-26 22:30N 51°55' E 004°12'0 0.0
2016-May-26 21:27N 51°55' E 004°12'0 0.0
2016-May-26 20:33N 51°55' E 004°12'0 0.0
2016-May-26 19:33N 51°55' E 004°12'0 0.0
2016-May-26 18:32N 51°55' E 004°12'2 2.4
2016-May-26 17:33N 51°57' E 004°09'1010.0
2016-May-26 16:33N 52°01' E 003°55'10 9.8
2016-May-26 15:33N 52°01' E 003°39'9 8.8
2016-May-26 14:33N 51°59' E 003°25'30 8.9
2016-May-26 11:15N 52°05' E 002°38'1514.1
2016-May-26 10:13N 52°19' E 002°44'42412.9
2016-May-25 01:30N 57°51' E 010°24'1313.1
2016-May-25 00:33N 57°48' E 010°47'1010.2
2016-May-24 23:33N 57°41' E 011°00'1212.4
2016-May-24 22:33N 57°32' E 011°17'1211.9
2016-May-24 21:33N 57°22' E 011°30'1212.2
2016-May-24 20:33N 57°11' E 011°38'1212.1
2016-May-24 19:33N 56°59' E 011°45'1212.2
2016-May-24 18:33N 56°48' E 011°52'1211.7
2016-May-24 17:33N 56°37' E 011°45'8510.5
2016-May-24 09:28N 55°15' E 011°05'8 8.1
2016-May-24 08:32N 55°08' E 010°60'1010.4
2016-May-24 07:33N 54°58' E 010°58'1111.2
2016-May-24 06:33N 54°48' E 010°50'10 9.8
2016-May-24 05:33N 54°38' E 010°53'1211.9
2016-May-24 04:33N 54°35' E 011°13'1212.3
2016-May-24 03:34N 54°30' E 011°32'1212.0
2016-May-24 02:33N 54°27' E 011°52'10 9.5
2016-May-24 01:33N 54°27' E 012°09'8 8.1
2016-May-24 00:33N 54°34' E 012°15'9 8.6
2016-May-23 23:32N 54°40' E 012°26'10 8.7
2016-May-23 22:25N 54°44' E 012°41'28 9.6
2016-May-23 19:33N 54°56' E 013°24'1313.1
2016-May-23 18:33N 55°01' E 013°45'1313.2
2016-May-23 17:33N 55°06' E 014°07'1313.1
2016-May-23 16:33N 55°12' E 014°27'1212.5
2016-May-23 15:33N 55°20' E 014°44'9 8.6
2016-May-23 14:33N 55°23' E 014°58'1212.4
2016-May-23 13:34N 55°33' E 015°11'1312.8
2016-May-23 12:33N 55°40' E 015°30'4813.9
2016-May-23 09:03N 55°52' E 016°53'713.6
2016-May-23 08:33N 55°53' E 017°05'1413.5
2016-May-23 07:33N 55°57' E 017°28'1413.5
2016-May-23 06:33N 56°02' E 017°51'1413.6
2016-May-23 05:33N 56°10' E 018°11'22213.5
2016-May-22 13:07N 59°17' E 021°56'813.5
2016-May-22 12:33N 59°21' E 022°07'1413.6
2016-May-22 11:33N 59°30' E 022°29'1413.4
2016-May-22 10:32N 59°34' E 022°54'1413.8
2016-May-22 09:33N 59°38' E 023°20'1413.5
2016-May-22 08:32N 59°42' E 023°46'1313.7
2016-May-22 07:33N 59°46' E 024°12'6913.6
2016-May-22 02:28N 60°00' E 026°26'1213.2
2016-May-22 01:33N 60°00' E 026°50'1412.5
2016-May-22 00:24N 60°04' E 027°18'1113.3
2016-May-21 23:33N 60°10' E 027°38'1212.4
2016-May-21 22:33N 60°10' E 028°03'1312.9
2016-May-21 21:33N 60°08' E 028°28'9 9.2
2016-May-21 20:31N 60°13' E 028°45'7 7.5
2016-May-21 19:33N 60°20' E 028°43'  

Dump ship's entire track history